createdAt,value
2022-09-07T00:00:20.905Z,1010.73
2022-09-07T00:01:20.947Z,1010.70
2022-09-07T00:02:20.904Z,1010.70
2022-09-07T00:03:21.085Z,1010.72
2022-09-07T00:04:20.952Z,1010.72
2022-09-07T00:05:20.873Z,1010.67
2022-09-07T00:06:20.854Z,1010.67
2022-09-07T00:07:20.848Z,1010.60
2022-09-07T00:08:20.811Z,1010.60
2022-09-07T00:09:20.805Z,1010.57
2022-09-07T00:10:20.801Z,1010.47
2022-09-07T00:11:20.791Z,1010.42
2022-09-07T00:12:20.783Z,1010.38
2022-09-07T00:13:20.769Z,1010.43
2022-09-07T00:14:20.743Z,1010.42
2022-09-07T00:15:20.753Z,1010.41
2022-09-07T00:16:20.939Z,1010.40
2022-09-07T00:17:20.732Z,1010.34
2022-09-07T00:18:20.711Z,1010.33
2022-09-07T00:19:20.699Z,1010.32
2022-09-07T00:20:20.739Z,1010.35
2022-09-07T00:21:20.693Z,1010.31
2022-09-07T00:22:20.659Z,1010.40
2022-09-07T00:23:20.654Z,1010.41
2022-09-07T00:24:20.629Z,1010.43
2022-09-07T00:25:20.626Z,1010.45
2022-09-07T00:26:20.611Z,1010.46
2022-09-07T00:27:20.635Z,1010.44
2022-09-07T00:28:20.617Z,1010.44
2022-09-07T00:29:20.582Z,1010.40
2022-09-07T00:30:20.569Z,1010.35
2022-09-07T00:31:20.648Z,1010.31
2022-09-07T00:32:20.555Z,1010.30
2022-09-07T00:33:20.548Z,1010.28
2022-09-07T00:34:20.535Z,1010.31
2022-09-07T00:35:20.534Z,1010.33
2022-09-07T00:36:20.505Z,1010.33
2022-09-07T00:37:20.534Z,1010.34
2022-09-07T00:38:20.512Z,1010.35
2022-09-07T00:39:20.491Z,1010.31
2022-09-07T00:40:20.471Z,1010.30
2022-09-07T00:41:20.461Z,1010.30
2022-09-07T00:42:20.443Z,1010.28
2022-09-07T00:43:20.435Z,1010.29
2022-09-07T00:44:20.443Z,1010.28
2022-09-07T00:45:20.428Z,1010.28
2022-09-07T00:46:20.469Z,1010.31
2022-09-07T00:47:20.409Z,1010.32
2022-09-07T00:48:20.383Z,1010.35
2022-09-07T00:49:20.374Z,1010.32
2022-09-07T00:50:20.383Z,1010.38
2022-09-07T00:51:20.377Z,1010.36
2022-09-07T00:52:20.336Z,1010.32
2022-09-07T00:53:20.327Z,1010.32
2022-09-07T00:54:20.320Z,1010.34
2022-09-07T00:55:20.328Z,1010.31
2022-09-07T00:56:20.297Z,1010.32
2022-09-07T00:57:20.298Z,1010.33
2022-09-07T00:58:20.273Z,1010.32
2022-09-07T00:59:20.261Z,1010.27
2022-09-07T01:00:20.279Z,1010.27
2022-09-07T01:01:20.405Z,1010.29
2022-09-07T01:02:20.407Z,1010.30
2022-09-07T01:03:20.225Z,1010.32
2022-09-07T01:04:20.212Z,1010.34
2022-09-07T01:05:20.204Z,1010.34
2022-09-07T01:06:20.189Z,1010.32
2022-09-07T01:07:20.205Z,1010.28
2022-09-07T01:08:20.172Z,1010.29
2022-09-07T01:09:20.156Z,1010.26
2022-09-07T01:10:20.160Z,1010.26
2022-09-07T01:11:20.128Z,1010.24
2022-09-07T01:12:20.123Z,1010.24
2022-09-07T01:13:20.127Z,1010.28
2022-09-07T01:14:20.124Z,1010.23
2022-09-07T01:15:20.091Z,1010.27
2022-09-07T01:16:20.145Z,1010.29
2022-09-07T01:17:20.065Z,1010.29
2022-09-07T01:18:20.059Z,1010.28
2022-09-07T01:19:20.079Z,1010.28
2022-09-07T01:20:20.046Z,1010.30
2022-09-07T01:21:20.023Z,1010.25
2022-09-07T01:22:20.021Z,1010.27
2022-09-07T01:23:20.004Z,1010.24
2022-09-07T01:24:20.016Z,1010.24
2022-09-07T01:25:19.988Z,1010.20
2022-09-07T01:26:19.978Z,1010.18
2022-09-07T01:27:19.962Z,1010.16
2022-09-07T01:28:19.961Z,1010.20
2022-09-07T01:29:19.936Z,1010.16
2022-09-07T01:30:19.955Z,1010.18
2022-09-07T01:31:20.011Z,1010.18
2022-09-07T01:32:19.902Z,1010.18
2022-09-07T01:33:19.916Z,1010.18
2022-09-07T01:34:19.946Z,1010.17
2022-09-07T01:35:19.877Z,1010.16
2022-09-07T01:36:19.888Z,1010.19
2022-09-07T01:37:19.883Z,1010.18
2022-09-07T01:38:19.843Z,1010.18
2022-09-07T01:39:19.832Z,1010.12
2022-09-07T01:40:19.835Z,1010.13
2022-09-07T01:41:19.836Z,1010.06
2022-09-07T01:42:19.808Z,1010.04
2022-09-07T01:43:19.800Z,1010.02
2022-09-07T01:44:19.783Z,1010.03
2022-09-07T01:45:19.782Z,1010.02
2022-09-07T01:46:19.858Z,1010.00
2022-09-07T01:47:19.752Z,1009.97
2022-09-07T01:48:19.741Z,1010.00
2022-09-07T01:49:19.726Z,1010.06
2022-09-07T01:50:19.725Z,1010.08
2022-09-07T01:51:19.711Z,1010.05
2022-09-07T01:52:19.736Z,1010.09
2022-09-07T01:53:19.700Z,1010.09
2022-09-07T01:54:19.672Z,1010.10
2022-09-07T01:55:19.655Z,1010.07
2022-09-07T01:56:19.673Z,1010.12
2022-09-07T01:57:19.631Z,1010.07
2022-09-07T01:58:19.632Z,1010.08
2022-09-07T01:59:19.620Z,1010.13
2022-09-07T02:00:19.609Z,1010.09
2022-09-07T02:01:19.639Z,1010.07
2022-09-07T02:02:19.680Z,1010.07
2022-09-07T02:03:19.569Z,1010.06
2022-09-07T02:04:19.567Z,1010.06
2022-09-07T02:05:19.560Z,1010.03
2022-09-07T02:06:19.563Z,1010.06
2022-09-07T02:07:19.532Z,1010.03
2022-09-07T02:08:19.533Z,1010.05
2022-09-07T02:09:19.509Z,1010.04
2022-09-07T02:10:19.533Z,1010.06
2022-09-07T02:11:19.483Z,1010.05
2022-09-07T02:12:19.474Z,1010.03
2022-09-07T02:13:19.465Z,1010.06
2022-09-07T02:14:19.459Z,1010.08
2022-09-07T02:15:19.448Z,1010.07
2022-09-07T02:16:19.506Z,1010.03
2022-09-07T02:17:19.418Z,1010.05
2022-09-07T02:18:19.452Z,1010.06
2022-09-07T02:19:19.429Z,1010.03
2022-09-07T02:20:19.398Z,1010.05
2022-09-07T02:21:19.382Z,1010.03
2022-09-07T02:22:19.378Z,1010.05
2022-09-07T02:23:19.353Z,1010.03
2022-09-07T02:24:19.359Z,1010.04
2022-09-07T02:25:19.338Z,1010.05
2022-09-07T02:26:19.332Z,1010.06
2022-09-07T02:27:19.309Z,1010.06
2022-09-07T02:28:19.304Z,1010.03
2022-09-07T02:29:19.361Z,1010.09
2022-09-07T02:30:19.291Z,1010.03
2022-09-07T02:31:19.320Z,1010.03
2022-09-07T02:32:19.261Z,1010.04
2022-09-07T02:33:19.247Z,1010.02
2022-09-07T02:34:19.234Z,1010.02
2022-09-07T02:35:19.236Z,1010.02
2022-09-07T02:36:19.219Z,1009.96
2022-09-07T02:37:19.207Z,1009.96
2022-09-07T02:38:19.194Z,1009.98
2022-09-07T02:39:19.186Z,1009.93
2022-09-07T02:40:19.174Z,1009.91
2022-09-07T02:41:19.159Z,1009.88
2022-09-07T02:42:19.147Z,1009.88
2022-09-07T02:43:19.141Z,1009.88
2022-09-07T02:44:19.130Z,1009.82
2022-09-07T02:45:19.161Z,1009.83
2022-09-07T02:46:19.221Z,1009.83
2022-09-07T02:47:19.096Z,1009.84
2022-09-07T02:48:19.086Z,1009.84
2022-09-07T02:49:19.069Z,1009.88
2022-09-07T02:50:19.062Z,1009.89
2022-09-07T02:51:19.063Z,1009.85
2022-09-07T02:52:19.071Z,1009.85
2022-09-07T02:53:19.024Z,1009.85
2022-09-07T02:54:19.011Z,1009.85
2022-09-07T02:55:19.024Z,1009.82
2022-09-07T02:56:19.000Z,1009.82
2022-09-07T02:57:19.020Z,1009.84
2022-09-07T02:58:18.982Z,1009.88
2022-09-07T02:59:18.975Z,1009.86
2022-09-07T03:00:18.951Z,1009.86
2022-09-07T03:01:19.003Z,1009.87
2022-09-07T03:02:18.964Z,1009.84
2022-09-07T03:03:18.941Z,1009.84
2022-09-07T03:04:18.905Z,1009.81
2022-09-07T03:05:18.897Z,1009.80
2022-09-07T03:06:18.891Z,1009.81
2022-09-07T03:07:18.881Z,1009.84
2022-09-07T03:08:18.872Z,1009.84
2022-09-07T03:09:18.864Z,1009.86
2022-09-07T03:10:18.845Z,1009.87
2022-09-07T03:11:18.841Z,1009.87
2022-09-07T03:12:18.819Z,1009.82
2022-09-07T03:13:18.823Z,1009.88
2022-09-07T03:14:18.809Z,1009.83
2022-09-07T03:15:18.799Z,1009.87
2022-09-07T03:16:18.822Z,1009.85
2022-09-07T03:17:18.763Z,1009.84
2022-09-07T03:18:18.775Z,1009.85
2022-09-07T03:19:18.752Z,1009.87
2022-09-07T03:20:18.756Z,1009.87
2022-09-07T03:21:18.744Z,1009.88
2022-09-07T03:22:18.728Z,1009.89
2022-09-07T03:23:18.713Z,1009.90
2022-09-07T03:24:18.689Z,1009.91
2022-09-07T03:25:18.697Z,1009.92
2022-09-07T03:26:18.665Z,1009.89
2022-09-07T03:27:18.656Z,1009.91
2022-09-07T03:28:18.687Z,1009.91
2022-09-07T03:29:18.637Z,1009.90
2022-09-07T03:30:18.647Z,1009.86
2022-09-07T03:31:18.692Z,1009.83
2022-09-07T03:32:18.602Z,1009.80
2022-09-07T03:33:18.603Z,1009.77
2022-09-07T03:34:18.590Z,1009.73
2022-09-07T03:35:18.587Z,1009.74
2022-09-07T03:36:18.583Z,1009.71
2022-09-07T03:37:18.560Z,1009.64
2022-09-07T03:38:18.547Z,1009.64
2022-09-07T03:39:18.532Z,1009.65
2022-09-07T03:40:18.519Z,1009.59
2022-09-07T03:41:18.563Z,1009.61
2022-09-07T03:42:18.491Z,1009.65
2022-09-07T03:43:18.498Z,1009.64
2022-09-07T03:44:18.502Z,1009.62
2022-09-07T03:45:18.487Z,1009.62
2022-09-07T03:46:18.516Z,1009.65
2022-09-07T03:47:18.442Z,1009.59
2022-09-07T03:48:18.429Z,1009.63
2022-09-07T03:49:18.426Z,1009.61
2022-09-07T03:50:18.415Z,1009.62
2022-09-07T03:51:18.413Z,1009.65
2022-09-07T03:52:18.399Z,1009.66
2022-09-07T03:53:18.389Z,1009.58
2022-09-07T03:54:18.398Z,1009.53
2022-09-07T03:55:18.374Z,1009.51
2022-09-07T03:56:18.375Z,1009.46
2022-09-07T03:57:18.359Z,1009.38
2022-09-07T03:58:18.325Z,1009.39
2022-09-07T03:59:18.322Z,1009.40
2022-09-07T04:00:18.306Z,1009.36
2022-09-07T04:01:18.397Z,1009.43
2022-09-07T04:02:18.393Z,1009.41
2022-09-07T04:03:18.297Z,1009.35
2022-09-07T04:04:18.282Z,1009.34
2022-09-07T04:05:18.254Z,1009.35
2022-09-07T04:06:18.248Z,1009.35
2022-09-07T04:07:18.246Z,1009.38
2022-09-07T04:08:18.231Z,1009.36
2022-09-07T04:09:18.204Z,1009.36
2022-09-07T04:10:18.205Z,1009.30
2022-09-07T04:11:18.202Z,1009.28
2022-09-07T04:12:18.168Z,1009.29
2022-09-07T04:13:18.203Z,1009.34
2022-09-07T04:14:18.168Z,1009.36
2022-09-07T04:15:18.141Z,1009.36
2022-09-07T04:16:18.160Z,1009.40
2022-09-07T04:17:18.121Z,1009.37
2022-09-07T04:18:18.130Z,1009.38
2022-09-07T04:19:18.107Z,1009.36
2022-09-07T04:20:18.085Z,1009.35
2022-09-07T04:21:18.076Z,1009.33
2022-09-07T04:22:18.061Z,1009.35
2022-09-07T04:23:18.062Z,1009.37
2022-09-07T04:24:18.049Z,1009.36
2022-09-07T04:25:18.070Z,1009.36
2022-09-07T04:26:18.011Z,1009.35
2022-09-07T04:27:18.029Z,1009.40
2022-09-07T04:28:18.599Z,1009.41
2022-09-07T04:29:18.003Z,1009.43
2022-09-07T04:30:17.976Z,1009.43
2022-09-07T04:31:18.051Z,1009.41
2022-09-07T04:32:17.949Z,1009.45
2022-09-07T04:33:17.951Z,1009.46
2022-09-07T04:34:17.949Z,1009.45
2022-09-07T04:35:17.937Z,1009.46
2022-09-07T04:36:17.913Z,1009.45
2022-09-07T04:37:17.929Z,1009.46
2022-09-07T04:38:17.890Z,1009.45
2022-09-07T04:39:17.923Z,1009.43
2022-09-07T04:40:17.886Z,1009.45
2022-09-07T04:41:17.890Z,1009.45
2022-09-07T04:42:17.842Z,1009.41
2022-09-07T04:43:18.518Z,1009.42
2022-09-07T04:44:17.833Z,1009.43
2022-09-07T04:45:17.817Z,1009.41
2022-09-07T04:46:17.899Z,1009.39
2022-09-07T04:47:17.794Z,1009.37
2022-09-07T04:48:17.771Z,1009.40
2022-09-07T04:49:17.762Z,1009.39
2022-09-07T04:50:17.786Z,1009.37
2022-09-07T04:51:17.891Z,1009.36
2022-09-07T04:52:17.724Z,1009.35
2022-09-07T04:53:17.734Z,1009.32
2022-09-07T04:54:17.719Z,1009.32
2022-09-07T04:55:17.697Z,1009.32
2022-09-07T04:56:17.698Z,1009.33
2022-09-07T04:57:17.690Z,1009.35
2022-09-07T04:58:17.667Z,1009.32
2022-09-07T04:59:17.657Z,1009.34
2022-09-07T05:00:17.659Z,1009.30
2022-09-07T05:01:17.719Z,1009.32
2022-09-07T05:02:17.739Z,1009.29
2022-09-07T05:03:17.624Z,1009.27
2022-09-07T05:04:17.606Z,1009.28
2022-09-07T05:05:17.587Z,1009.27
2022-09-07T05:06:17.603Z,1009.31
2022-09-07T05:07:17.582Z,1009.26
2022-09-07T05:08:17.553Z,1009.29
2022-09-07T05:09:17.549Z,1009.25
2022-09-07T05:10:17.533Z,1009.23
2022-09-07T05:11:17.535Z,1009.22
2022-09-07T05:12:17.533Z,1009.23
2022-09-07T05:13:17.508Z,1009.22
2022-09-07T05:14:17.487Z,1009.28
2022-09-07T05:15:17.484Z,1009.23
2022-09-07T05:16:17.605Z,1009.26
2022-09-07T05:17:17.460Z,1009.24
2022-09-07T05:18:17.452Z,1009.25
2022-09-07T05:19:17.432Z,1009.26
2022-09-07T05:20:20.265Z,1009.24
2022-09-07T05:21:17.423Z,1009.23
2022-09-07T05:22:17.511Z,1009.24
2022-09-07T05:23:17.397Z,1009.24
2022-09-07T05:24:17.380Z,1009.24
2022-09-07T05:25:17.373Z,1009.25
2022-09-07T05:26:17.357Z,1009.26
2022-09-07T05:27:17.342Z,1009.25
2022-09-07T05:28:19.573Z,1009.22
2022-09-07T05:31:17.929Z,1009.10
2022-09-07T05:32:17.632Z,1009.13
2022-09-07T05:33:17.279Z,1009.10
2022-09-07T05:34:32.857Z,1009.15
2022-09-07T05:35:17.267Z,1009.15
2022-09-07T05:36:17.244Z,1009.13
2022-09-07T05:37:17.235Z,1009.16
2022-09-07T05:38:17.228Z,1009.12
2022-09-07T05:39:17.225Z,1009.17
2022-09-07T05:40:17.319Z,1009.16
2022-09-07T05:41:17.192Z,1009.19
2022-09-07T05:42:17.178Z,1009.21
2022-09-07T05:43:17.167Z,1009.21
2022-09-07T05:45:17.159Z,1009.15
2022-09-07T05:46:17.230Z,1009.17
2022-09-07T05:47:17.135Z,1009.18
2022-09-07T05:48:17.133Z,1009.18
2022-09-07T05:49:17.156Z,1009.16
2022-09-07T05:50:17.157Z,1009.15
2022-09-07T05:51:17.084Z,1009.16
2022-09-07T05:52:17.071Z,1009.15
2022-09-07T05:53:17.077Z,1009.19
2022-09-07T05:54:17.047Z,1009.17
2022-09-07T05:55:29.304Z,1009.15
2022-09-07T05:56:17.058Z,1009.17
2022-09-07T05:57:17.011Z,1009.18
2022-09-07T05:58:16.994Z,1009.14
2022-09-07T05:59:16.989Z,1009.19
2022-09-07T06:00:16.978Z,1009.17
2022-09-07T06:01:16.976Z,1009.14
2022-09-07T06:02:17.160Z,1009.18
2022-09-07T06:03:17.156Z,1009.20
2022-09-07T06:04:16.950Z,1009.22
2022-09-07T06:05:16.931Z,1009.24
2022-09-07T06:06:16.924Z,1009.24
2022-09-07T06:07:24.117Z,1009.23
2022-09-07T06:08:16.894Z,1009.27
2022-09-07T06:09:16.888Z,1009.29
2022-09-07T06:11:16.906Z,1009.23
2022-09-07T06:12:17.018Z,1009.27
2022-09-07T06:13:16.832Z,1009.29
2022-09-07T06:14:16.877Z,1009.29
2022-09-07T06:15:16.816Z,1009.27
2022-09-07T06:16:16.912Z,1009.25
2022-09-07T06:17:16.860Z,1009.23
2022-09-07T06:18:16.864Z,1009.25
2022-09-07T06:19:16.781Z,1009.27
2022-09-07T06:20:16.797Z,1009.21
2022-09-07T06:21:16.758Z,1009.23
2022-09-07T06:22:16.752Z,1009.21
2022-09-07T06:23:16.792Z,1009.26
2022-09-07T06:24:16.781Z,1009.29
2022-09-07T06:25:16.705Z,1009.29
2022-09-07T06:26:16.698Z,1009.28
2022-09-07T06:27:16.690Z,1009.25
2022-09-07T06:28:16.674Z,1009.20
2022-09-07T06:29:16.676Z,1009.27
2022-09-07T06:30:16.657Z,1009.24
2022-09-07T06:31:16.665Z,1009.26
2022-09-07T06:33:18.144Z,1009.26
2022-09-07T06:34:16.650Z,1009.23
2022-09-07T06:35:16.608Z,1009.20
2022-09-07T06:36:16.594Z,1009.21
2022-09-07T06:37:16.575Z,1009.22
2022-09-07T06:38:16.567Z,1009.22
2022-09-07T06:39:16.558Z,1009.27
2022-09-07T06:40:16.555Z,1009.27
2022-09-07T06:42:16.535Z,1009.25
2022-09-07T06:43:16.537Z,1009.26
2022-09-07T06:44:16.508Z,1009.22
2022-09-07T06:45:16.520Z,1009.21
2022-09-07T06:47:16.494Z,1009.24
2022-09-07T06:48:16.459Z,1009.22
2022-09-07T06:49:16.451Z,1009.20
2022-09-07T06:50:16.458Z,1009.22
2022-09-07T06:51:16.436Z,1009.20
2022-09-07T06:52:16.419Z,1009.20
2022-09-07T06:55:16.403Z,1009.16
2022-09-07T06:56:16.423Z,1009.10
2022-09-07T06:57:16.357Z,1009.08
2022-09-07T06:58:16.355Z,1009.04
2022-09-07T06:59:16.343Z,1009.05
2022-09-07T07:00:16.349Z,1009.03
2022-09-07T07:01:16.415Z,1009.03
2022-09-07T07:02:16.318Z,1008.99
2022-09-07T07:03:16.375Z,1009.01
2022-09-07T07:04:16.294Z,1009.03
2022-09-07T07:05:16.305Z,1008.99
2022-09-07T07:06:16.293Z,1009.01
2022-09-07T07:07:16.254Z,1009.02
2022-09-07T07:08:16.241Z,1009.02
2022-09-07T07:09:16.233Z,1008.96
2022-09-07T07:10:18.734Z,1008.98
2022-09-07T07:11:16.205Z,1008.98
2022-09-07T07:14:20.643Z,1009.03
2022-09-07T07:15:21.676Z,1009.03
2022-09-07T07:16:21.669Z,1009.05
2022-09-07T07:17:21.616Z,1008.97
2022-09-07T07:18:21.607Z,1009.00
2022-09-07T07:19:21.575Z,1008.99
2022-09-07T07:20:21.573Z,1008.97
2022-09-07T07:21:21.568Z,1008.94
2022-09-07T07:22:45.740Z,1008.90
2022-09-07T07:23:21.553Z,1008.87
2022-09-07T07:24:21.522Z,1008.85
2022-09-07T07:25:21.538Z,1008.87
2022-09-07T07:26:21.501Z,1008.87
2022-09-07T07:27:21.538Z,1008.85
2022-09-07T07:29:23.890Z,1008.89
2022-09-07T07:30:21.474Z,1008.87
2022-09-07T07:31:21.462Z,1008.92
2022-09-07T07:32:21.440Z,1008.95
2022-09-07T07:33:21.454Z,1008.95
2022-09-07T07:34:21.480Z,1008.98
2022-09-07T07:35:21.402Z,1008.97
2022-09-07T07:36:21.397Z,1009.01
2022-09-07T07:37:24.780Z,1009.00
2022-09-07T07:40:24.438Z,1009.03
2022-09-07T07:42:21.397Z,1009.00
2022-09-07T07:43:21.318Z,1009.00
2022-09-07T07:44:21.345Z,1008.98
2022-09-07T07:46:21.361Z,1008.94
2022-09-07T07:47:21.271Z,1008.95
2022-09-07T07:48:21.265Z,1008.93
2022-09-07T07:49:21.260Z,1008.88
2022-09-07T07:50:36.504Z,1008.85
2022-09-07T07:51:21.267Z,1008.80
2022-09-07T07:54:21.235Z,1008.79
2022-09-07T07:56:21.187Z,1008.78
2022-09-07T07:57:21.167Z,1008.84
2022-09-07T07:58:21.155Z,1008.84
2022-09-07T07:59:21.155Z,1008.83
2022-09-07T08:00:37.493Z,1008.88
2022-09-07T08:01:21.207Z,1008.89
2022-09-07T08:02:21.167Z,1008.89
2022-09-07T08:03:21.103Z,1008.90
2022-09-07T08:04:21.099Z,1008.89
2022-09-07T08:05:21.099Z,1008.92
2022-09-07T08:06:21.139Z,1008.91
2022-09-07T08:07:21.077Z,1008.91
2022-09-07T08:08:21.056Z,1008.86
2022-09-07T08:09:21.045Z,1008.87
2022-09-07T08:10:21.026Z,1008.87
2022-09-07T08:11:21.014Z,1008.88
2022-09-07T08:12:21.059Z,1008.84
2022-09-07T08:13:21.011Z,1008.87
2022-09-07T08:14:21.019Z,1008.90
2022-09-07T08:15:20.978Z,1008.90
2022-09-07T08:16:21.059Z,1008.98
2022-09-07T08:17:20.955Z,1008.98
2022-09-07T08:18:20.978Z,1009.05
2022-09-07T08:19:20.931Z,1009.00
2022-09-07T08:20:20.982Z,1009.02
2022-09-07T08:21:20.916Z,1008.96
2022-09-07T08:22:20.906Z,1008.93
2022-09-07T08:23:20.929Z,1008.94
2022-09-07T08:24:20.879Z,1008.94
2022-09-07T08:25:20.874Z,1008.93
2022-09-07T08:26:20.859Z,1008.94
2022-09-07T08:27:20.847Z,1008.97
2022-09-07T08:28:20.828Z,1008.99
2022-09-07T08:29:20.831Z,1009.02
2022-09-07T08:30:20.827Z,1009.04
2022-09-07T08:31:20.865Z,1009.03
2022-09-07T08:32:20.790Z,1009.01
2022-09-07T08:33:20.775Z,1008.99
2022-09-07T08:34:20.809Z,1009.01
2022-09-07T08:35:20.764Z,1009.00
2022-09-07T08:36:20.763Z,1008.95
2022-09-07T08:37:20.762Z,1008.88
2022-09-07T08:38:21.178Z,1008.89
2022-09-07T08:39:20.733Z,1008.83
2022-09-07T08:40:20.723Z,1008.77
2022-09-07T08:41:20.731Z,1008.76
2022-09-07T08:42:20.692Z,1008.75
2022-09-07T08:43:20.675Z,1008.78
2022-09-07T08:44:20.682Z,1008.78
2022-09-07T08:45:20.658Z,1008.73
2022-09-07T08:46:20.688Z,1008.74
2022-09-07T08:47:20.628Z,1008.75
2022-09-07T08:48:20.611Z,1008.76
2022-09-07T08:49:20.629Z,1008.77
2022-09-07T08:50:20.646Z,1008.76
2022-09-07T08:51:24.227Z,1008.77
2022-09-07T08:52:20.570Z,1008.74
2022-09-07T08:53:20.571Z,1008.74
2022-09-07T08:54:20.572Z,1008.70
2022-09-07T08:55:20.540Z,1008.69
2022-09-07T08:56:20.538Z,1008.67
2022-09-07T08:57:21.039Z,1008.66
2022-09-07T08:58:47.298Z,1008.64
2022-09-07T08:59:20.504Z,1008.65
2022-09-07T09:00:20.486Z,1008.61
2022-09-07T09:01:36.551Z,1008.61
2022-09-07T09:02:28.347Z,1008.56
2022-09-07T09:04:15.353Z,1008.55
2022-09-07T09:04:22.403Z,1008.55
2022-09-07T09:05:20.751Z,1008.50
2022-09-07T09:06:20.593Z,1008.52
2022-09-07T09:07:20.434Z,1008.52
2022-09-07T09:08:20.419Z,1008.49
2022-09-07T09:09:20.392Z,1008.52
2022-09-07T09:10:20.380Z,1008.53
2022-09-07T09:11:20.364Z,1008.54
2022-09-07T09:12:20.362Z,1008.57
2022-09-07T09:13:20.423Z,1008.62
2022-09-07T09:14:20.363Z,1008.65
2022-09-07T09:15:20.378Z,1008.62
2022-09-07T09:16:20.446Z,1008.67
2022-09-07T09:17:20.332Z,1008.68
2022-09-07T09:18:20.327Z,1008.71
2022-09-07T09:19:20.277Z,1008.67
2022-09-07T09:20:20.273Z,1008.64
2022-09-07T09:21:20.265Z,1008.67
2022-09-07T09:22:20.252Z,1008.67
2022-09-07T09:23:20.269Z,1008.69
2022-09-07T09:24:20.240Z,1008.67
2022-09-07T09:25:20.216Z,1008.70
2022-09-07T09:26:20.220Z,1008.68
2022-09-07T09:27:20.224Z,1008.67
2022-09-07T09:28:20.190Z,1008.66
2022-09-07T09:29:20.190Z,1008.64
2022-09-07T09:30:20.196Z,1008.59
2022-09-07T09:31:20.300Z,1008.60
2022-09-07T09:32:20.144Z,1008.59
2022-09-07T09:33:20.144Z,1008.54
2022-09-07T09:34:23.872Z,1008.57
2022-09-07T09:35:20.122Z,1008.53
2022-09-07T09:36:20.126Z,1008.56
2022-09-07T09:37:20.193Z,1008.53
2022-09-07T09:38:20.072Z,1008.54
2022-09-07T09:39:20.094Z,1008.54
2022-09-07T09:40:20.133Z,1008.55
2022-09-07T09:41:20.059Z,1008.53
2022-09-07T09:42:20.040Z,1008.49
2022-09-07T09:43:20.031Z,1008.47
2022-09-07T09:44:20.025Z,1008.45
2022-09-07T09:45:20.009Z,1008.46
2022-09-07T09:46:20.002Z,1008.46
2022-09-07T09:47:35.372Z,1008.44
2022-09-07T09:48:19.993Z,1008.39
2022-09-07T09:49:19.970Z,1008.44
2022-09-07T09:52:44.937Z,1008.44
2022-09-07T09:53:19.921Z,1008.46
2022-09-07T09:54:19.912Z,1008.42
2022-09-07T09:55:33.775Z,1008.41
2022-09-07T09:56:19.923Z,1008.45
2022-09-07T09:57:19.888Z,1008.41
2022-09-07T10:00:27.875Z,1008.35
2022-09-07T10:01:21.740Z,1008.30
2022-09-07T10:04:21.505Z,1008.26
2022-09-07T10:05:19.821Z,1008.21
2022-09-07T10:06:19.778Z,1008.23
2022-09-07T10:07:19.770Z,1008.22
2022-09-07T10:08:19.750Z,1008.24
2022-09-07T10:09:19.772Z,1008.21
2022-09-07T10:10:19.746Z,1008.27
2022-09-07T10:11:19.857Z,1008.27
2022-09-07T10:12:19.741Z,1008.24
2022-09-07T10:13:19.729Z,1008.25
2022-09-07T10:14:19.689Z,1008.24
2022-09-07T10:15:19.678Z,1008.25
2022-09-07T10:16:19.723Z,1008.20
2022-09-07T10:17:19.672Z,1008.19
2022-09-07T10:18:19.638Z,1008.20
2022-09-07T10:19:19.664Z,1008.15
2022-09-07T10:20:19.640Z,1008.14
2022-09-07T10:21:19.965Z,1008.23
2022-09-07T10:22:19.638Z,1008.26
2022-09-07T10:23:19.594Z,1008.19
2022-09-07T10:24:19.578Z,1008.22
2022-09-07T10:25:19.601Z,1008.15
2022-09-07T10:26:19.577Z,1008.17
2022-09-07T10:27:19.585Z,1008.20
2022-09-07T10:28:19.719Z,1008.16
2022-09-07T10:29:19.526Z,1008.15
2022-09-07T10:30:19.520Z,1008.18
2022-09-07T10:31:19.569Z,1008.16
2022-09-07T10:32:19.489Z,1008.16
2022-09-07T10:33:19.501Z,1008.17
2022-09-07T10:34:26.870Z,1008.15
2022-09-07T10:35:19.493Z,1008.15
2022-09-07T10:36:19.442Z,1008.17
2022-09-07T10:37:19.438Z,1008.15
2022-09-07T10:38:19.430Z,1008.17
2022-09-07T10:39:19.452Z,1008.15
2022-09-07T10:40:20.723Z,1008.18
2022-09-07T10:41:19.410Z,1008.15
2022-09-07T10:42:19.408Z,1008.13
2022-09-07T10:43:21.095Z,1008.18
2022-09-07T10:44:19.378Z,1008.19
2022-09-07T10:45:19.382Z,1008.18
2022-09-07T10:47:19.440Z,1008.19
2022-09-07T10:48:19.327Z,1008.19
2022-09-07T10:49:19.323Z,1008.17
2022-09-07T10:50:22.781Z,1008.16
2022-09-07T10:51:19.300Z,1008.15
2022-09-07T10:52:19.276Z,1008.14
2022-09-07T10:53:40.093Z,1008.15
2022-09-07T10:54:34.851Z,1008.14
2022-09-07T10:55:19.314Z,1008.13
2022-09-07T10:56:19.243Z,1008.10
2022-09-07T10:57:19.240Z,1008.08
2022-09-07T10:58:19.419Z,1008.06
2022-09-07T10:59:19.235Z,1008.02
2022-09-07T11:00:19.192Z,1007.99
2022-09-07T11:01:19.269Z,1007.96
2022-09-07T11:02:19.204Z,1007.97
2022-09-07T11:03:26.892Z,1007.93
2022-09-07T11:04:19.175Z,1007.90
2022-09-07T11:05:19.162Z,1007.87
2022-09-07T11:06:19.131Z,1007.86
2022-09-07T11:07:19.120Z,1007.87
2022-09-07T11:08:19.144Z,1007.88
2022-09-07T11:09:19.897Z,1007.87
2022-09-07T11:10:19.100Z,1007.90
2022-09-07T11:11:19.154Z,1007.91
2022-09-07T11:12:19.197Z,1007.91
2022-09-07T11:13:19.534Z,1007.94
2022-09-07T11:14:19.044Z,1007.97
2022-09-07T11:15:19.058Z,1007.99
2022-09-07T11:17:19.051Z,1007.97
2022-09-07T11:18:19.020Z,1007.99
2022-09-07T11:19:35.392Z,1007.98
2022-09-07T11:20:19.023Z,1008.00
2022-09-07T11:21:56.079Z,1007.98
2022-09-07T11:22:18.998Z,1008.00
2022-09-07T11:23:18.986Z,1007.96
2022-09-07T11:24:18.965Z,1007.98
2022-09-07T11:25:34.304Z,1007.98
2022-09-07T11:26:18.943Z,1008.00
2022-09-07T11:27:18.919Z,1007.97
2022-09-07T11:28:18.926Z,1007.95
2022-09-07T11:29:34.164Z,1007.93
2022-09-07T11:30:18.884Z,1007.93
2022-09-07T11:31:18.954Z,1007.91
2022-09-07T11:32:18.854Z,1007.90
2022-09-07T11:33:18.860Z,1007.89
2022-09-07T11:34:26.103Z,1007.91
2022-09-07T11:35:18.856Z,1007.91
2022-09-07T11:36:18.871Z,1007.88
2022-09-07T11:37:18.853Z,1007.91
2022-09-07T11:38:18.794Z,1007.90
2022-09-07T11:39:18.791Z,1007.89
2022-09-07T11:40:18.776Z,1007.96
2022-09-07T11:41:18.774Z,1007.97
2022-09-07T11:43:18.769Z,1007.93
2022-09-07T11:44:18.846Z,1007.93
2022-09-07T11:45:18.742Z,1007.96
2022-09-07T11:46:18.744Z,1007.92
2022-09-07T11:47:18.693Z,1007.95
2022-09-07T11:48:19.434Z,1007.96
2022-09-07T11:49:18.716Z,1008.01
2022-09-07T11:50:18.669Z,1008.00
2022-09-07T11:51:18.666Z,1008.00
2022-09-07T11:52:18.640Z,1008.05
2022-09-07T11:53:18.641Z,1008.03
2022-09-07T11:54:18.637Z,1008.02
2022-09-07T11:55:18.622Z,1008.02
2022-09-07T11:56:18.656Z,1008.00
2022-09-07T11:57:18.599Z,1008.01
2022-09-07T11:58:18.611Z,1007.98
2022-09-07T11:59:18.594Z,1007.98
2022-09-07T12:00:18.556Z,1007.99
2022-09-07T12:01:18.555Z,1007.96
2022-09-07T12:02:18.587Z,1008.00
2022-09-07T12:03:22.186Z,1008.02
2022-09-07T12:04:18.766Z,1007.98
2022-09-07T12:05:18.507Z,1007.96
2022-09-07T12:06:18.686Z,1007.98
2022-09-07T12:07:18.609Z,1008.02
2022-09-07T12:08:18.485Z,1008.01
2022-09-07T12:09:18.663Z,1007.97
2022-09-07T12:10:18.451Z,1007.93
2022-09-07T12:11:23.076Z,1007.95
2022-09-07T12:12:18.519Z,1007.94
2022-09-07T12:13:18.418Z,1007.86
2022-09-07T12:14:18.470Z,1007.90
2022-09-07T12:15:18.469Z,1007.96
2022-09-07T12:16:18.532Z,1007.89
2022-09-07T12:17:18.380Z,1007.87
2022-09-07T12:18:18.429Z,1007.86
2022-09-07T12:19:18.472Z,1007.83
2022-09-07T12:20:18.428Z,1007.80
2022-09-07T12:21:18.376Z,1007.78
2022-09-07T12:22:18.383Z,1007.78
2022-09-07T12:23:18.335Z,1007.81
2022-09-07T12:24:18.329Z,1007.74
2022-09-07T12:25:18.402Z,1007.80
2022-09-07T12:26:18.418Z,1007.78
2022-09-07T12:27:18.457Z,1007.73
2022-09-07T12:28:28.275Z,1007.73
2022-09-07T12:29:19.248Z,1007.74
2022-09-07T12:30:18.241Z,1007.75
2022-09-07T12:31:18.332Z,1007.75
2022-09-07T12:33:18.366Z,1007.74
2022-09-07T12:34:18.217Z,1007.69